sensor_id;sensor_type;location;lat;lon;timestamp;P1;durP1;ratioP1;P2;durP2;ratioP2
73515;SDS011;61763;51.416;5.442;2022-08-16T00:00:50;9.82;;;7.13;;
73515;SDS011;61763;51.416;5.442;2022-08-16T00:03:15;12.55;;;7.07;;
73515;SDS011;61763;51.416;5.442;2022-08-16T00:05:41;11.38;;;8.75;;
73515;SDS011;61763;51.416;5.442;2022-08-16T00:08:08;9.98;;;7.07;;
73515;SDS011;61763;51.416;5.442;2022-08-16T00:10:34;10.43;;;6.78;;
73515;SDS011;61763;51.416;5.442;2022-08-16T00:13:00;10.82;;;7.50;;
73515;SDS011;61763;51.416;5.442;2022-08-16T00:15:34;10.20;;;6.38;;
73515;SDS011;61763;51.416;5.442;2022-08-16T00:18:02;10.57;;;7.40;;
73515;SDS011;61763;51.416;5.442;2022-08-16T00:20:29;10.52;;;8.25;;
73515;SDS011;61763;51.416;5.442;2022-08-16T00:22:55;11.68;;;8.68;;
73515;SDS011;61763;51.416;5.442;2022-08-16T00:25:21;12.88;;;8.70;;
73515;SDS011;61763;51.416;5.442;2022-08-16T00:27:48;11.93;;;9.18;;
73515;SDS011;61763;51.416;5.442;2022-08-16T00:30:14;12.77;;;6.85;;
73515;SDS011;61763;51.416;5.442;2022-08-16T00:35:09;12.23;;;10.07;;
73515;SDS011;61763;51.416;5.442;2022-08-16T00:37:36;12.88;;;8.40;;
73515;SDS011;61763;51.416;5.442;2022-08-16T00:40:03;13.75;;;10.00;;
73515;SDS011;61763;51.416;5.442;2022-08-16T00:42:30;12.13;;;7.97;;
73515;SDS011;61763;51.416;5.442;2022-08-16T00:44:57;13.10;;;7.93;;
73515;SDS011;61763;51.416;5.442;2022-08-16T00:47:26;17.20;;;11.15;;
73515;SDS011;61763;51.416;5.442;2022-08-16T00:49:52;11.80;;;8.18;;
73515;SDS011;61763;51.416;5.442;2022-08-16T00:52:18;15.27;;;11.35;;
73515;SDS011;61763;51.416;5.442;2022-08-16T00:54:43;14.25;;;8.70;;
73515;SDS011;61763;51.416;5.442;2022-08-16T00:57:09;15.63;;;10.98;;
73515;SDS011;61763;51.416;5.442;2022-08-16T00:59:35;14.25;;;9.73;;
73515;SDS011;61763;51.416;5.442;2022-08-16T01:02:05;15.48;;;9.55;;
73515;SDS011;61763;51.416;5.442;2022-08-16T01:04:32;14.20;;;9.25;;
73515;SDS011;61763;51.416;5.442;2022-08-16T01:06:59;13.13;;;9.27;;
73515;SDS011;61763;51.416;5.442;2022-08-16T01:09:26;14.38;;;9.38;;
73515;SDS011;61763;51.416;5.442;2022-08-16T01:11:52;14.15;;;10.40;;
73515;SDS011;61763;51.416;5.442;2022-08-16T01:14:28;16.42;;;9.30;;
73515;SDS011;61763;51.416;5.442;2022-08-16T01:16:57;16.17;;;10.85;;
73515;SDS011;61763;51.416;5.442;2022-08-16T01:19:30;14.27;;;10.85;;
73515;SDS011;61763;51.416;5.442;2022-08-16T01:24:37;15.80;;;8.75;;
73515;SDS011;61763;51.416;5.442;2022-08-16T01:27:12;14.02;;;11.45;;
73515;SDS011;61763;51.416;5.442;2022-08-16T01:29:46;14.15;;;10.68;;
73515;SDS011;61763;51.416;5.442;2022-08-16T01:32:20;14.40;;;10.73;;
73515;SDS011;61763;51.416;5.442;2022-08-16T01:34:46;16.00;;;11.13;;
73515;SDS011;61763;51.416;5.442;2022-08-16T01:37:11;14.05;;;8.65;;
73515;SDS011;61763;51.416;5.442;2022-08-16T01:39:38;14.55;;;11.48;;
73515;SDS011;61763;51.416;5.442;2022-08-16T01:42:06;19.42;;;12.00;;
73515;SDS011;61763;51.416;5.442;2022-08-16T01:44:33;16.00;;;10.32;;
73515;SDS011;61763;51.416;5.442;2022-08-16T01:47:03;18.88;;;11.40;;
73515;SDS011;61763;51.416;5.442;2022-08-16T01:49:32;14.90;;;11.88;;
73515;SDS011;61763;51.416;5.442;2022-08-16T01:52:00;16.92;;;9.95;;
73515;SDS011;61763;51.416;5.442;2022-08-16T01:54:30;16.45;;;12.48;;
73515;SDS011;61763;51.416;5.442;2022-08-16T01:56:56;15.75;;;11.18;;
73515;SDS011;61763;51.416;5.442;2022-08-16T01:59:22;13.75;;;9.30;;
73515;SDS011;61763;51.416;5.442;2022-08-16T02:01:48;16.50;;;10.43;;
73515;SDS011;61763;51.416;5.442;2022-08-16T02:06:41;16.45;;;10.35;;
73515;SDS011;61763;51.416;5.442;2022-08-16T02:09:07;17.33;;;12.23;;
73515;SDS011;61763;51.416;5.442;2022-08-16T02:11:35;15.25;;;9.95;;
73515;SDS011;61763;51.416;5.442;2022-08-16T02:14:01;17.50;;;10.70;;
73515;SDS011;61763;51.416;5.442;2022-08-16T02:16:27;15.05;;;10.48;;
73515;SDS011;61763;51.416;5.442;2022-08-16T02:18:52;17.77;;;11.07;;
73515;SDS011;61763;51.416;5.442;2022-08-16T02:21:18;17.35;;;11.95;;
73515;SDS011;61763;51.416;5.442;2022-08-16T02:23:44;14.77;;;11.15;;
73515;SDS011;61763;51.416;5.442;2022-08-16T02:26:10;15.20;;;9.32;;
73515;SDS011;61763;51.416;5.442;2022-08-16T02:28:35;17.08;;;11.88;;
73515;SDS011;61763;51.416;5.442;2022-08-16T02:31:03;17.23;;;12.15;;
73515;SDS011;61763;51.416;5.442;2022-08-16T02:33:31;19.63;;;14.20;;
73515;SDS011;61763;51.416;5.442;2022-08-16T02:35:56;18.98;;;12.20;;
73515;SDS011;61763;51.416;5.442;2022-08-16T02:38:22;18.70;;;11.77;;
73515;SDS011;61763;51.416;5.442;2022-08-16T02:40:47;16.73;;;13.13;;
73515;SDS011;61763;51.416;5.442;2022-08-16T02:43:14;17.92;;;11.30;;
73515;SDS011;61763;51.416;5.442;2022-08-16T02:45:40;15.63;;;10.07;;
73515;SDS011;61763;51.416;5.442;2022-08-16T02:48:05;20.55;;;13.02;;
73515;SDS011;61763;51.416;5.442;2022-08-16T02:50:31;18.48;;;12.80;;
73515;SDS011;61763;51.416;5.442;2022-08-16T02:52:56;17.95;;;11.15;;
73515;SDS011;61763;51.416;5.442;2022-08-16T02:55:22;16.13;;;10.40;;
73515;SDS011;61763;51.416;5.442;2022-08-16T02:57:47;20.70;;;11.57;;
73515;SDS011;61763;51.416;5.442;2022-08-16T03:00:14;18.38;;;12.85;;
73515;SDS011;61763;51.416;5.442;2022-08-16T03:02:40;18.95;;;10.90;;
73515;SDS011;61763;51.416;5.442;2022-08-16T03:05:08;19.17;;;12.07;;
73515;SDS011;61763;51.416;5.442;2022-08-16T03:07:35;19.80;;;11.93;;
73515;SDS011;61763;51.416;5.442;2022-08-16T03:10:00;18.92;;;13.00;;
73515;SDS011;61763;51.416;5.442;2022-08-16T03:12:26;20.73;;;12.88;;
73515;SDS011;61763;51.416;5.442;2022-08-16T03:14:52;19.65;;;12.75;;
73515;SDS011;61763;51.416;5.442;2022-08-16T03:17:17;19.75;;;13.77;;
73515;SDS011;61763;51.416;5.442;2022-08-16T03:19:43;19.00;;;12.65;;
73515;SDS011;61763;51.416;5.442;2022-08-16T03:22:09;18.73;;;14.13;;
73515;SDS011;61763;51.416;5.442;2022-08-16T03:24:34;20.42;;;14.07;;
73515;SDS011;61763;51.416;5.442;2022-08-16T03:27:00;19.83;;;11.85;;
73515;SDS011;61763;51.416;5.442;2022-08-16T03:29:26;17.88;;;13.02;;
73515;SDS011;61763;51.416;5.442;2022-08-16T03:31:53;19.85;;;12.82;;
73515;SDS011;61763;51.416;5.442;2022-08-16T03:34:19;19.13;;;13.32;;
73515;SDS011;61763;51.416;5.442;2022-08-16T03:36:44;21.00;;;13.80;;
73515;SDS011;61763;51.416;5.442;2022-08-16T03:39:09;18.80;;;11.75;;
73515;SDS011;61763;51.416;5.442;2022-08-16T03:41:35;20.13;;;12.18;;
73515;SDS011;61763;51.416;5.442;2022-08-16T03:44:01;19.48;;;12.52;;
73515;SDS011;61763;51.416;5.442;2022-08-16T03:46:31;19.55;;;13.88;;
73515;SDS011;61763;51.416;5.442;2022-08-16T03:48:56;19.95;;;13.27;;
73515;SDS011;61763;51.416;5.442;2022-08-16T03:51:22;23.87;;;15.40;;
73515;SDS011;61763;51.416;5.442;2022-08-16T03:53:49;21.05;;;13.23;;
73515;SDS011;61763;51.416;5.442;2022-08-16T03:56:14;21.38;;;14.60;;
73515;SDS011;61763;51.416;5.442;2022-08-16T03:58:39;21.83;;;14.68;;
73515;SDS011;61763;51.416;5.442;2022-08-16T04:01:05;20.92;;;12.77;;
73515;SDS011;61763;51.416;5.442;2022-08-16T04:03:31;25.13;;;14.23;;
73515;SDS011;61763;51.416;5.442;2022-08-16T04:05:56;19.40;;;13.88;;
73515;SDS011;61763;51.416;5.442;2022-08-16T04:08:22;19.02;;;13.68;;
73515;SDS011;61763;51.416;5.442;2022-08-16T04:10:48;20.05;;;13.68;;
73515;SDS011;61763;51.416;5.442;2022-08-16T04:13:14;20.00;;;12.50;;
73515;SDS011;61763;51.416;5.442;2022-08-16T04:15:39;21.13;;;12.48;;
73515;SDS011;61763;51.416;5.442;2022-08-16T04:18:05;18.42;;;11.80;;
73515;SDS011;61763;51.416;5.442;2022-08-16T04:20:30;19.52;;;13.00;;
73515;SDS011;61763;51.416;5.442;2022-08-16T04:22:56;23.02;;;13.70;;
73515;SDS011;61763;51.416;5.442;2022-08-16T04:25:22;20.63;;;13.95;;
73515;SDS011;61763;51.416;5.442;2022-08-16T04:27:47;18.15;;;11.98;;
73515;SDS011;61763;51.416;5.442;2022-08-16T04:30:14;21.02;;;14.18;;
73515;SDS011;61763;51.416;5.442;2022-08-16T04:32:42;21.63;;;14.00;;
73515;SDS011;61763;51.416;5.442;2022-08-16T04:35:09;21.73;;;13.27;;
73515;SDS011;61763;51.416;5.442;2022-08-16T04:37:37;21.50;;;14.30;;
73515;SDS011;61763;51.416;5.442;2022-08-16T04:40:03;21.75;;;11.90;;
73515;SDS011;61763;51.416;5.442;2022-08-16T04:42:29;23.23;;;12.95;;
73515;SDS011;61763;51.416;5.442;2022-08-16T04:44:55;21.17;;;13.18;;
73515;SDS011;61763;51.416;5.442;2022-08-16T04:47:23;20.20;;;12.20;;
73515;SDS011;61763;51.416;5.442;2022-08-16T04:49:49;21.08;;;14.43;;
73515;SDS011;61763;51.416;5.442;2022-08-16T04:54:42;25.00;;;13.88;;
73515;SDS011;61763;51.416;5.442;2022-08-16T04:57:07;19.17;;;13.45;;
73515;SDS011;61763;51.416;5.442;2022-08-16T04:59:32;22.23;;;13.18;;
73515;SDS011;61763;51.416;5.442;2022-08-16T05:01:58;22.08;;;14.68;;
73515;SDS011;61763;51.416;5.442;2022-08-16T05:04:23;18.93;;;12.97;;
73515;SDS011;61763;51.416;5.442;2022-08-16T05:06:49;18.30;;;11.48;;
73515;SDS011;61763;51.416;5.442;2022-08-16T05:09:15;22.33;;;13.35;;
73515;SDS011;61763;51.416;5.442;2022-08-16T05:11:41;19.02;;;13.25;;
73515;SDS011;61763;51.416;5.442;2022-08-16T05:14:07;19.85;;;13.18;;
73515;SDS011;61763;51.416;5.442;2022-08-16T05:16:32;18.00;;;11.55;;
73515;SDS011;61763;51.416;5.442;2022-08-16T05:18:58;20.65;;;11.48;;
73515;SDS011;61763;51.416;5.442;2022-08-16T05:21:26;17.83;;;10.98;;
73515;SDS011;61763;51.416;5.442;2022-08-16T05:23:52;16.65;;;12.95;;
73515;SDS011;61763;51.416;5.442;2022-08-16T05:26:18;19.23;;;13.07;;
73515;SDS011;61763;51.416;5.442;2022-08-16T05:28:44;15.82;;;12.25;;
73515;SDS011;61763;51.416;5.442;2022-08-16T05:31:09;13.40;;;10.43;;
73515;SDS011;61763;51.416;5.442;2022-08-16T05:33:35;15.90;;;10.75;;
73515;SDS011;61763;51.416;5.442;2022-08-16T05:36:00;14.52;;;9.20;;
73515;SDS011;61763;51.416;5.442;2022-08-16T05:38:26;15.57;;;11.15;;
73515;SDS011;61763;51.416;5.442;2022-08-16T05:40:52;13.85;;;9.05;;
73515;SDS011;61763;51.416;5.442;2022-08-16T05:43:19;14.93;;;9.32;;
73515;SDS011;61763;51.416;5.442;2022-08-16T05:45:45;15.23;;;9.82;;
73515;SDS011;61763;51.416;5.442;2022-08-16T05:48:11;17.98;;;9.15;;
73515;SDS011;61763;51.416;5.442;2022-08-16T05:50:36;16.63;;;11.13;;
73515;SDS011;61763;51.416;5.442;2022-08-16T05:53:02;15.50;;;9.68;;
73515;SDS011;61763;51.416;5.442;2022-08-16T05:55:27;13.57;;;9.63;;
73515;SDS011;61763;51.416;5.442;2022-08-16T05:57:53;16.23;;;9.45;;
73515;SDS011;61763;51.416;5.442;2022-08-16T06:00:18;16.73;;;9.85;;
73515;SDS011;61763;51.416;5.442;2022-08-16T06:02:43;13.55;;;9.98;;
73515;SDS011;61763;51.416;5.442;2022-08-16T06:05:09;15.40;;;11.35;;
73515;SDS011;61763;51.416;5.442;2022-08-16T06:07:35;14.52;;;11.38;;
73515;SDS011;61763;51.416;5.442;2022-08-16T06:10:00;18.33;;;10.63;;
73515;SDS011;61763;51.416;5.442;2022-08-16T06:12:26;12.77;;;9.15;;
73515;SDS011;61763;51.416;5.442;2022-08-16T06:14:53;16.23;;;11.60;;
73515;SDS011;61763;51.416;5.442;2022-08-16T06:17:22;13.85;;;9.82;;
73515;SDS011;61763;51.416;5.442;2022-08-16T06:19:48;14.77;;;9.77;;
73515;SDS011;61763;51.416;5.442;2022-08-16T06:22:13;14.63;;;11.65;;
73515;SDS011;61763;51.416;5.442;2022-08-16T06:24:39;15.07;;;11.45;;
73515;SDS011;61763;51.416;5.442;2022-08-16T06:27:04;16.95;;;11.48;;
73515;SDS011;61763;51.416;5.442;2022-08-16T06:29:29;14.52;;;8.60;;
73515;SDS011;61763;51.416;5.442;2022-08-16T06:31:55;14.27;;;11.55;;
73515;SDS011;61763;51.416;5.442;2022-08-16T06:34:20;15.02;;;9.40;;
73515;SDS011;61763;51.416;5.442;2022-08-16T06:36:45;14.85;;;9.68;;
73515;SDS011;61763;51.416;5.442;2022-08-16T06:39:11;17.47;;;11.43;;
73515;SDS011;61763;51.416;5.442;2022-08-16T06:41:36;12.10;;;8.32;;
73515;SDS011;61763;51.416;5.442;2022-08-16T06:44:02;12.43;;;9.10;;
73515;SDS011;61763;51.416;5.442;2022-08-16T06:46:29;16.40;;;10.52;;
73515;SDS011;61763;51.416;5.442;2022-08-16T06:48:59;13.68;;;9.43;;
73515;SDS011;61763;51.416;5.442;2022-08-16T06:51:25;14.52;;;10.77;;
73515;SDS011;61763;51.416;5.442;2022-08-16T06:53:51;11.68;;;8.63;;
73515;SDS011;61763;51.416;5.442;2022-08-16T06:56:16;14.68;;;10.15;;
73515;SDS011;61763;51.416;5.442;2022-08-16T06:58:42;13.15;;;10.65;;
73515;SDS011;61763;51.416;5.442;2022-08-16T07:01:07;14.18;;;10.27;;
73515;SDS011;61763;51.416;5.442;2022-08-16T07:03:33;15.40;;;10.18;;
73515;SDS011;61763;51.416;5.442;2022-08-16T07:05:58;19.33;;;10.43;;
73515;SDS011;61763;51.416;5.442;2022-08-16T07:08:24;12.63;;;9.18;;
73515;SDS011;61763;51.416;5.442;2022-08-16T07:10:50;15.55;;;10.23;;
73515;SDS011;61763;51.416;5.442;2022-08-16T07:13:16;17.73;;;11.32;;
73515;SDS011;61763;51.416;5.442;2022-08-16T07:15:42;15.77;;;11.80;;
73515;SDS011;61763;51.416;5.442;2022-08-16T07:18:07;14.75;;;9.38;;
73515;SDS011;61763;51.416;5.442;2022-08-16T07:20:35;20.92;;;13.00;;
73515;SDS011;61763;51.416;5.442;2022-08-16T07:23:01;16.35;;;11.63;;
73515;SDS011;61763;51.416;5.442;2022-08-16T07:25:28;15.30;;;11.90;;
73515;SDS011;61763;51.416;5.442;2022-08-16T07:27:53;16.50;;;11.00;;
73515;SDS011;61763;51.416;5.442;2022-08-16T07:30:19;13.00;;;9.93;;
73515;SDS011;61763;51.416;5.442;2022-08-16T07:32:45;14.75;;;11.52;;
73515;SDS011;61763;51.416;5.442;2022-08-16T07:35:10;13.98;;;10.25;;
73515;SDS011;61763;51.416;5.442;2022-08-16T07:37:35;13.07;;;11.23;;
73515;SDS011;61763;51.416;5.442;2022-08-16T07:40:01;13.63;;;10.85;;
73515;SDS011;61763;51.416;5.442;2022-08-16T07:42:27;11.88;;;8.73;;
73515;SDS011;61763;51.416;5.442;2022-08-16T07:44:52;16.10;;;10.90;;
73515;SDS011;61763;51.416;5.442;2022-08-16T07:47:18;13.13;;;8.85;;
73515;SDS011;61763;51.416;5.442;2022-08-16T07:49:44;11.73;;;9.10;;
73515;SDS011;61763;51.416;5.442;2022-08-16T07:52:09;15.70;;;9.30;;
73515;SDS011;61763;51.416;5.442;2022-08-16T07:54:34;13.93;;;11.10;;
73515;SDS011;61763;51.416;5.442;2022-08-16T07:57:00;13.40;;;10.90;;
73515;SDS011;61763;51.416;5.442;2022-08-16T07:59:25;15.60;;;12.32;;
73515;SDS011;61763;51.416;5.442;2022-08-16T08:01:51;11.60;;;9.43;;
73515;SDS011;61763;51.416;5.442;2022-08-16T08:06:44;16.15;;;10.82;;
73515;SDS011;61763;51.416;5.442;2022-08-16T08:09:09;12.52;;;11.18;;
73515;SDS011;61763;51.416;5.442;2022-08-16T08:11:35;13.55;;;9.60;;
73515;SDS011;61763;51.416;5.442;2022-08-16T08:14:01;13.57;;;10.68;;
73515;SDS011;61763;51.416;5.442;2022-08-16T08:16:27;12.68;;;10.13;;
73515;SDS011;61763;51.416;5.442;2022-08-16T08:18:53;12.20;;;9.77;;
73515;SDS011;61763;51.416;5.442;2022-08-16T08:21:19;9.88;;;6.70;;
73515;SDS011;61763;51.416;5.442;2022-08-16T08:23:45;11.00;;;8.63;;
73515;SDS011;61763;51.416;5.442;2022-08-16T08:26:11;11.90;;;8.57;;
73515;SDS011;61763;51.416;5.442;2022-08-16T08:28:37;11.45;;;8.27;;
73515;SDS011;61763;51.416;5.442;2022-08-16T08:31:03;13.77;;;8.45;;
73515;SDS011;61763;51.416;5.442;2022-08-16T08:33:29;11.93;;;8.02;;
73515;SDS011;61763;51.416;5.442;2022-08-16T08:35:56;11.75;;;7.43;;
73515;SDS011;61763;51.416;5.442;2022-08-16T08:38:23;9.02;;;6.97;;
73515;SDS011;61763;51.416;5.442;2022-08-16T08:40:49;11.85;;;9.13;;
73515;SDS011;61763;51.416;5.442;2022-08-16T08:43:15;14.30;;;9.23;;
73515;SDS011;61763;51.416;5.442;2022-08-16T08:45:41;10.73;;;9.60;;
73515;SDS011;61763;51.416;5.442;2022-08-16T08:48:07;9.85;;;8.68;;
73515;SDS011;61763;51.416;5.442;2022-08-16T08:50:33;9.35;;;7.63;;
73515;SDS011;61763;51.416;5.442;2022-08-16T08:52:58;13.55;;;7.68;;
73515;SDS011;61763;51.416;5.442;2022-08-16T08:55:25;10.07;;;6.30;;
73515;SDS011;61763;51.416;5.442;2022-08-16T08:57:52;13.55;;;6.93;;
73515;SDS011;61763;51.416;5.442;2022-08-16T09:00:18;11.65;;;8.25;;
73515;SDS011;61763;51.416;5.442;2022-08-16T09:02:47;9.18;;;7.72;;
73515;SDS011;61763;51.416;5.442;2022-08-16T09:05:13;9.20;;;7.05;;
73515;SDS011;61763;51.416;5.442;2022-08-16T09:07:40;9.02;;;6.25;;
73515;SDS011;61763;51.416;5.442;2022-08-16T09:10:06;6.85;;;5.97;;
73515;SDS011;61763;51.416;5.442;2022-08-16T09:12:32;11.05;;;8.32;;
73515;SDS011;61763;51.416;5.442;2022-08-16T09:14:59;8.73;;;6.97;;
73515;SDS011;61763;51.416;5.442;2022-08-16T09:17:24;6.90;;;5.30;;
73515;SDS011;61763;51.416;5.442;2022-08-16T09:19:51;7.85;;;4.80;;
73515;SDS011;61763;51.416;5.442;2022-08-16T09:22:19;11.00;;;5.00;;
73515;SDS011;61763;51.416;5.442;2022-08-16T09:24:45;8.18;;;5.88;;
73515;SDS011;61763;51.416;5.442;2022-08-16T09:27:11;7.72;;;5.05;;
73515;SDS011;61763;51.416;5.442;2022-08-16T09:29:36;8.95;;;6.50;;
73515;SDS011;61763;51.416;5.442;2022-08-16T09:32:02;7.75;;;4.22;;
73515;SDS011;61763;51.416;5.442;2022-08-16T09:34:27;6.75;;;5.85;;
73515;SDS011;61763;51.416;5.442;2022-08-16T09:36:54;9.60;;;6.00;;
73515;SDS011;61763;51.416;5.442;2022-08-16T09:39:21;7.10;;;6.05;;
73515;SDS011;61763;51.416;5.442;2022-08-16T09:41:48;6.55;;;4.28;;
73515;SDS011;61763;51.416;5.442;2022-08-16T09:44:17;5.88;;;4.40;;
73515;SDS011;61763;51.416;5.442;2022-08-16T09:46:44;8.43;;;4.22;;
73515;SDS011;61763;51.416;5.442;2022-08-16T09:49:10;9.35;;;6.07;;
73515;SDS011;61763;51.416;5.442;2022-08-16T09:51:36;7.95;;;5.80;;
73515;SDS011;61763;51.416;5.442;2022-08-16T09:54:02;9.32;;;5.55;;
73515;SDS011;61763;51.416;5.442;2022-08-16T09:56:30;7.55;;;4.25;;
73515;SDS011;61763;51.416;5.442;2022-08-16T09:58:57;5.20;;;3.97;;
73515;SDS011;61763;51.416;5.442;2022-08-16T10:01:25;9.15;;;5.60;;
73515;SDS011;61763;51.416;5.442;2022-08-16T10:03:51;6.15;;;5.55;;
73515;SDS011;61763;51.416;5.442;2022-08-16T10:08:43;4.78;;;3.58;;
73515;SDS011;61763;51.416;5.442;2022-08-16T10:11:09;6.35;;;5.75;;
73515;SDS011;61763;51.416;5.442;2022-08-16T10:13:53;6.38;;;5.18;;
73515;SDS011;61763;51.416;5.442;2022-08-16T10:16:20;5.97;;;4.00;;
73515;SDS011;61763;51.416;5.442;2022-08-16T10:18:45;7.18;;;4.13;;
73515;SDS011;61763;51.416;5.442;2022-08-16T10:21:11;4.93;;;3.63;;
73515;SDS011;61763;51.416;5.442;2022-08-16T10:23:37;5.50;;;3.83;;
73515;SDS011;61763;51.416;5.442;2022-08-16T10:26:03;6.32;;;4.07;;
73515;SDS011;61763;51.416;5.442;2022-08-16T10:28:28;8.02;;;5.07;;
73515;SDS011;61763;51.416;5.442;2022-08-16T10:30:54;5.82;;;5.22;;
73515;SDS011;61763;51.416;5.442;2022-08-16T10:33:20;5.00;;;3.63;;
73515;SDS011;61763;51.416;5.442;2022-08-16T10:35:45;4.85;;;3.35;;
73515;SDS011;61763;51.416;5.442;2022-08-16T10:38:11;6.07;;;3.63;;
73515;SDS011;61763;51.416;5.442;2022-08-16T10:40:38;7.55;;;3.70;;
73515;SDS011;61763;51.416;5.442;2022-08-16T10:43:04;5.03;;;3.35;;
73515;SDS011;61763;51.416;5.442;2022-08-16T10:45:30;4.47;;;4.07;;
73515;SDS011;61763;51.416;5.442;2022-08-16T10:47:56;5.18;;;3.85;;
73515;SDS011;61763;51.416;5.442;2022-08-16T10:50:23;6.18;;;4.10;;
73515;SDS011;61763;51.416;5.442;2022-08-16T10:52:49;6.07;;;4.85;;
73515;SDS011;61763;51.416;5.442;2022-08-16T10:55:17;6.78;;;3.35;;
73515;SDS011;61763;51.416;5.442;2022-08-16T10:57:43;3.97;;;3.20;;
73515;SDS011;61763;51.416;5.442;2022-08-16T11:00:09;4.10;;;3.63;;
73515;SDS011;61763;51.416;5.442;2022-08-16T11:02:38;5.47;;;3.42;;
73515;SDS011;61763;51.416;5.442;2022-08-16T11:05:05;5.32;;;3.72;;
73515;SDS011;61763;51.416;5.442;2022-08-16T11:07:36;6.03;;;3.38;;
73515;SDS011;61763;51.416;5.442;2022-08-16T11:10:03;8.32;;;3.08;;
73515;SDS011;61763;51.416;5.442;2022-08-16T11:12:28;5.28;;;4.65;;
73515;SDS011;61763;51.416;5.442;2022-08-16T11:14:54;5.50;;;4.93;;
73515;SDS011;61763;51.416;5.442;2022-08-16T11:17:19;6.80;;;5.43;;
73515;SDS011;61763;51.416;5.442;2022-08-16T11:19:45;7.50;;;5.57;;
73515;SDS011;61763;51.416;5.442;2022-08-16T11:22:11;6.80;;;3.55;;
73515;SDS011;61763;51.416;5.442;2022-08-16T11:24:37;6.70;;;5.20;;
73515;SDS011;61763;51.416;5.442;2022-08-16T11:27:05;6.30;;;5.72;;
73515;SDS011;61763;51.416;5.442;2022-08-16T11:29:32;4.45;;;3.20;;
73515;SDS011;61763;51.416;5.442;2022-08-16T11:31:59;5.07;;;3.10;;
73515;SDS011;61763;51.416;5.442;2022-08-16T11:34:24;5.80;;;5.20;;
73515;SDS011;61763;51.416;5.442;2022-08-16T11:36:50;6.38;;;4.28;;
73515;SDS011;61763;51.416;5.442;2022-08-16T11:39:16;6.85;;;3.42;;
73515;SDS011;61763;51.416;5.442;2022-08-16T11:41:41;6.78;;;6.13;;
73515;SDS011;61763;51.416;5.442;2022-08-16T11:44:08;5.43;;;3.65;;
73515;SDS011;61763;51.416;5.442;2022-08-16T11:46:35;9.50;;;5.40;;
73515;SDS011;61763;51.416;5.442;2022-08-16T11:49:02;7.35;;;3.83;;
73515;SDS011;61763;51.416;5.442;2022-08-16T11:51:28;5.57;;;5.07;;
73515;SDS011;61763;51.416;5.442;2022-08-16T11:53:54;5.20;;;4.70;;
73515;SDS011;61763;51.416;5.442;2022-08-16T11:56:20;5.47;;;3.58;;
73515;SDS011;61763;51.416;5.442;2022-08-16T11:58:45;6.43;;;3.65;;
73515;SDS011;61763;51.416;5.442;2022-08-16T12:01:10;7.05;;;4.28;;
73515;SDS011;61763;51.416;5.442;2022-08-16T12:03:38;8.02;;;4.20;;
73515;SDS011;61763;51.416;5.442;2022-08-16T12:06:08;6.72;;;5.32;;
73515;SDS011;61763;51.416;5.442;2022-08-16T12:08:36;6.55;;;3.35;;
73515;SDS011;61763;51.416;5.442;2022-08-16T12:11:02;4.95;;;4.07;;
73515;SDS011;61763;51.416;5.442;2022-08-16T12:13:29;5.88;;;3.67;;
73515;SDS011;61763;51.416;5.442;2022-08-16T12:15:55;5.50;;;3.78;;
73515;SDS011;61763;51.416;5.442;2022-08-16T12:18:20;5.60;;;3.53;;
73515;SDS011;61763;51.416;5.442;2022-08-16T12:20:46;4.80;;;3.13;;
73515;SDS011;61763;51.416;5.442;2022-08-16T12:23:11;8.90;;;6.22;;
73515;SDS011;61763;51.416;5.442;2022-08-16T12:25:37;5.53;;;5.03;;
73515;SDS011;61763;51.416;5.442;2022-08-16T12:28:03;6.95;;;6.35;;
73515;SDS011;61763;51.416;5.442;2022-08-16T12:30:32;6.57;;;5.90;;
73515;SDS011;61763;51.416;5.442;2022-08-16T12:33:01;6.32;;;4.90;;
73515;SDS011;61763;51.416;5.442;2022-08-16T12:35:28;5.00;;;3.35;;
73515;SDS011;61763;51.416;5.442;2022-08-16T12:37:54;5.35;;;3.65;;
73515;SDS011;61763;51.416;5.442;2022-08-16T12:40:22;5.63;;;3.78;;
73515;SDS011;61763;51.416;5.442;2022-08-16T12:42:51;4.78;;;3.20;;
73515;SDS011;61763;51.416;5.442;2022-08-16T12:45:19;6.93;;;4.97;;
73515;SDS011;61763;51.416;5.442;2022-08-16T12:47:45;6.30;;;5.00;;
73515;SDS011;61763;51.416;5.442;2022-08-16T12:52:56;4.70;;;2.90;;
73515;SDS011;61763;51.416;5.442;2022-08-16T12:55:21;5.68;;;5.07;;
73515;SDS011;61763;51.416;5.442;2022-08-16T12:57:48;5.70;;;4.78;;
73515;SDS011;61763;51.416;5.442;2022-08-16T13:00:16;10.27;;;3.75;;
73515;SDS011;61763;51.416;5.442;2022-08-16T13:02:42;5.75;;;2.70;;
73515;SDS011;61763;51.416;5.442;2022-08-16T13:07:37;4.53;;;3.08;;
73515;SDS011;61763;51.416;5.442;2022-08-16T13:10:04;4.10;;;3.13;;
73515;SDS011;61763;51.416;5.442;2022-08-16T13:12:38;5.75;;;3.47;;
73515;SDS011;61763;51.416;5.442;2022-08-16T13:15:06;5.15;;;4.22;;
73515;SDS011;61763;51.416;5.442;2022-08-16T13:17:35;5.78;;;3.45;;
73515;SDS011;61763;51.416;5.442;2022-08-16T13:20:03;11.00;;;4.10;;
73515;SDS011;61763;51.416;5.442;2022-08-16T13:22:31;6.35;;;2.95;;
73515;SDS011;61763;51.416;5.442;2022-08-16T13:24:56;7.60;;;3.67;;
73515;SDS011;61763;51.416;5.442;2022-08-16T13:27:22;6.38;;;2.95;;
73515;SDS011;61763;51.416;5.442;2022-08-16T13:29:47;3.58;;;2.63;;
73515;SDS011;61763;51.416;5.442;2022-08-16T13:32:13;5.85;;;4.15;;
73515;SDS011;61763;51.416;5.442;2022-08-16T13:34:38;4.50;;;3.15;;
73515;SDS011;61763;51.416;5.442;2022-08-16T13:37:04;5.50;;;5.00;;
73515;SDS011;61763;51.416;5.442;2022-08-16T13:39:29;4.90;;;3.22;;
73515;SDS011;61763;51.416;5.442;2022-08-16T13:41:56;5.93;;;3.65;;
73515;SDS011;61763;51.416;5.442;2022-08-16T13:44:25;4.18;;;3.38;;
73515;SDS011;61763;51.416;5.442;2022-08-16T13:46:50;5.45;;;4.95;;
73515;SDS011;61763;51.416;5.442;2022-08-16T13:49:16;5.80;;;5.20;;
73515;SDS011;61763;51.416;5.442;2022-08-16T13:51:41;5.57;;;2.55;;
73515;SDS011;61763;51.416;5.442;2022-08-16T13:54:07;6.38;;;5.20;;
73515;SDS011;61763;51.416;5.442;2022-08-16T13:56:33;5.90;;;2.97;;
73515;SDS011;61763;51.416;5.442;2022-08-16T13:59:00;5.70;;;3.00;;
73515;SDS011;61763;51.416;5.442;2022-08-16T14:01:26;6.75;;;6.18;;
73515;SDS011;61763;51.416;5.442;2022-08-16T14:03:52;5.38;;;4.78;;
73515;SDS011;61763;51.416;5.442;2022-08-16T14:06:17;4.95;;;2.95;;
73515;SDS011;61763;51.416;5.442;2022-08-16T14:08:43;4.85;;;3.30;;
73515;SDS011;61763;51.416;5.442;2022-08-16T14:11:12;7.95;;;6.57;;
73515;SDS011;61763;51.416;5.442;2022-08-16T14:13:39;7.20;;;3.20;;
73515;SDS011;61763;51.416;5.442;2022-08-16T14:16:06;9.93;;;5.53;;
73515;SDS011;61763;51.416;5.442;2022-08-16T14:18:31;7.80;;;2.97;;
73515;SDS011;61763;51.416;5.442;2022-08-16T14:20:57;12.07;;;4.85;;
73515;SDS011;61763;51.416;5.442;2022-08-16T14:23:22;5.40;;;4.90;;
73515;SDS011;61763;51.416;5.442;2022-08-16T14:25:48;8.98;;;6.22;;
73515;SDS011;61763;51.416;5.442;2022-08-16T14:28:13;10.05;;;5.82;;
73515;SDS011;61763;51.416;5.442;2022-08-16T14:30:39;5.60;;;3.28;;
73515;SDS011;61763;51.416;5.442;2022-08-16T14:33:04;5.65;;;3.70;;
73515;SDS011;61763;51.416;5.442;2022-08-16T14:35:30;7.45;;;3.05;;
73515;SDS011;61763;51.416;5.442;2022-08-16T14:37:58;6.85;;;5.97;;
73515;SDS011;61763;51.416;5.442;2022-08-16T14:40:24;5.68;;;3.45;;
73515;SDS011;61763;51.416;5.442;2022-08-16T14:42:50;5.65;;;3.40;;
73515;SDS011;61763;51.416;5.442;2022-08-16T14:45:18;8.45;;;6.25;;
73515;SDS011;61763;51.416;5.442;2022-08-16T14:47:45;9.50;;;7.18;;